createdAt,value
2023-03-04T00:01:47.910Z,2.80
2023-03-04T00:04:18.956Z,2.70
2023-03-04T00:06:49.879Z,2.70
2023-03-04T00:09:22.100Z,2.60
2023-03-04T00:11:53.026Z,2.50
2023-03-04T00:14:24.176Z,2.40
2023-03-04T00:16:55.026Z,2.50
2023-03-04T00:19:25.940Z,2.40
2023-03-04T00:21:57.060Z,2.40
2023-03-04T00:24:28.037Z,2.30
2023-03-04T00:26:59.213Z,2.30
2023-03-04T00:29:30.113Z,2.20
2023-03-04T00:32:01.126Z,2.20
2023-03-04T00:34:33.021Z,2.10
2023-03-04T00:37:04.126Z,2.20
2023-03-04T00:39:35.014Z,2.10
2023-03-04T00:42:06.201Z,2.10
2023-03-04T00:44:37.157Z,2.10
2023-03-04T00:47:08.255Z,2.00
2023-03-04T00:49:39.169Z,2.00
2023-03-04T00:52:10.606Z,1.90
2023-03-04T00:54:48.573Z,1.90
2023-03-04T00:57:19.478Z,1.80
2023-03-04T00:59:50.406Z,1.70
2023-03-04T01:02:21.563Z,1.80
2023-03-04T01:04:52.630Z,1.80
2023-03-04T01:07:23.541Z,1.80
2023-03-04T01:09:54.536Z,1.80
2023-03-04T01:12:25.442Z,1.80
2023-03-04T01:14:56.442Z,1.80
2023-03-04T01:17:27.570Z,1.80
2023-03-04T01:19:58.488Z,1.80
2023-03-04T01:22:29.367Z,1.70
2023-03-04T01:25:00.330Z,1.80
2023-03-04T01:27:31.275Z,1.70
2023-03-04T01:30:02.665Z,1.60
2023-03-04T01:32:33.667Z,1.60
2023-03-04T01:35:05.106Z,1.60
2023-03-04T01:37:36.144Z,1.60
2023-03-04T01:40:08.715Z,1.60
2023-03-04T01:42:39.948Z,1.50
2023-03-04T01:45:19.062Z,1.50
2023-03-04T01:47:51.388Z,1.50
2023-03-04T01:50:33.853Z,1.50
2023-03-04T01:53:04.998Z,1.50
2023-03-04T01:55:35.943Z,1.60
2023-03-04T01:58:12.352Z,1.50
2023-03-04T02:00:43.658Z,1.60
2023-03-04T02:03:19.681Z,1.50
2023-03-04T02:05:52.908Z,1.40
2023-03-04T02:08:25.113Z,1.30
2023-03-04T02:10:56.151Z,1.30
2023-03-04T02:13:27.106Z,1.20
2023-03-04T02:15:58.100Z,1.20
2023-03-04T02:18:29.041Z,1.20
2023-03-04T02:21:09.523Z,1.20
2023-03-04T02:23:58.551Z,1.20
2023-03-04T02:26:31.557Z,1.20
2023-03-04T02:29:04.374Z,1.20
2023-03-04T02:31:45.277Z,1.10
2023-03-04T02:34:29.434Z,1.10
2023-03-04T02:37:01.758Z,1.10
2023-03-04T02:39:35.554Z,1.00
2023-03-04T02:42:07.096Z,1.10
2023-03-04T02:44:46.426Z,1.20
2023-03-04T02:47:18.858Z,1.20
2023-03-04T02:49:49.838Z,1.10
2023-03-04T02:52:26.602Z,1.10
2023-03-04T02:54:57.613Z,1.10
2023-03-04T02:57:28.482Z,1.10
2023-03-04T02:59:59.415Z,1.20
2023-03-04T03:02:30.341Z,1.10
2023-03-04T03:05:01.326Z,1.10
2023-03-04T03:07:32.354Z,1.10
2023-03-04T03:10:03.457Z,1.10
2023-03-04T03:12:34.362Z,1.20
2023-03-04T03:15:06.062Z,1.20
2023-03-04T03:17:36.934Z,1.10
2023-03-04T03:20:10.017Z,1.10
2023-03-04T03:22:41.956Z,1.10
2023-03-04T03:25:14.411Z,1.00
2023-03-04T03:27:45.402Z,1.00
2023-03-04T03:30:16.697Z,1.00
2023-03-04T03:32:47.576Z,1.00
2023-03-04T03:35:18.977Z,0.90
2023-03-04T03:37:49.834Z,0.90
2023-03-04T03:40:20.775Z,0.90
2023-03-04T03:42:51.688Z,0.90
2023-03-04T03:45:22.654Z,0.90
2023-03-04T03:47:53.545Z,0.80
2023-03-04T03:50:24.563Z,0.90
2023-03-04T03:52:55.829Z,0.90
2023-03-04T03:55:28.011Z,0.90
2023-03-04T03:57:58.941Z,0.80
2023-03-04T04:00:29.851Z,0.80
2023-03-04T04:03:01.516Z,0.70
2023-03-04T04:05:32.534Z,0.70
2023-03-04T04:08:03.562Z,0.70
2023-03-04T04:10:34.488Z,0.60
2023-03-04T04:13:05.569Z,0.60
2023-03-04T04:15:38.681Z,0.70
2023-03-04T04:18:09.925Z,0.50
2023-03-04T04:20:40.835Z,0.50
2023-03-04T04:23:12.092Z,0.50
2023-03-04T04:25:43.134Z,0.50
2023-03-04T04:28:14.284Z,0.50
2023-03-04T04:30:45.252Z,0.50
2023-03-04T04:33:16.367Z,0.40
2023-03-04T04:35:47.391Z,0.40
2023-03-04T04:38:18.280Z,0.40
2023-03-04T04:40:49.227Z,0.30
2023-03-04T04:43:20.164Z,0.20
2023-03-04T04:45:51.649Z,0.30
2023-03-04T04:48:22.577Z,0.30
2023-03-04T04:50:56.798Z,0.20
2023-03-04T04:53:27.719Z,0.30
2023-03-04T04:55:58.614Z,0.40
2023-03-04T04:58:29.551Z,0.30
2023-03-04T05:01:00.480Z,0.30
2023-03-04T05:03:33.177Z,0.30
2023-03-04T05:06:07.047Z,0.30
2023-03-04T05:08:38.243Z,0.30
2023-03-04T05:11:09.616Z,0.40
2023-03-04T05:13:40.572Z,0.30
2023-03-04T05:16:11.967Z,0.30
2023-03-04T05:18:43.153Z,0.30
2023-03-04T05:21:14.391Z,0.30
2023-03-04T05:23:45.631Z,0.30
2023-03-04T05:26:18.774Z,0.30
2023-03-04T05:28:49.757Z,0.30
2023-03-04T05:31:20.821Z,0.40
2023-03-04T05:33:51.782Z,0.40
2023-03-04T05:36:23.133Z,0.40
2023-03-04T05:38:54.300Z,0.40
2023-03-04T05:41:25.907Z,0.40
2023-03-04T05:43:56.885Z,0.30
2023-03-04T05:46:27.806Z,0.40
2023-03-04T05:48:58.847Z,0.30
2023-03-04T05:51:29.787Z,0.20
2023-03-04T05:54:00.696Z,0.20
2023-03-04T05:56:33.537Z,0.10
2023-03-04T05:59:04.406Z,0.10
2023-03-04T06:01:35.440Z,0.10
2023-03-04T06:04:06.730Z,0.10
2023-03-04T06:06:37.721Z,0.10
2023-03-04T06:09:08.611Z,0.10
2023-03-04T06:11:40.015Z,0.10
2023-03-04T06:14:11.066Z,0.00
2023-03-04T06:16:42.224Z,-0.10
2023-03-04T06:19:13.117Z,-0.10
2023-03-04T06:21:44.000Z,-0.10
2023-03-04T06:24:14.978Z,0.00
2023-03-04T06:26:45.934Z,-0.10
2023-03-04T06:29:17.652Z,-0.10
2023-03-04T06:31:48.630Z,0.00
2023-03-04T06:34:20.052Z,0.00
2023-03-04T06:36:51.116Z,0.00
2023-03-04T06:39:22.077Z,0.00
2023-03-04T06:41:53.038Z,0.20
2023-03-04T06:44:24.147Z,0.30
2023-03-04T06:46:55.214Z,0.20
2023-03-04T06:49:26.283Z,0.30
2023-03-04T06:51:57.222Z,0.30
2023-03-04T06:54:28.128Z,0.30
2023-03-04T06:56:59.119Z,0.40
2023-03-04T06:59:30.020Z,0.50
2023-03-04T07:02:01.227Z,0.50
2023-03-04T07:04:32.217Z,0.60
2023-03-04T07:07:03.208Z,0.60
2023-03-04T07:09:34.259Z,0.70
2023-03-04T07:12:05.515Z,0.80
2023-03-04T07:14:36.456Z,0.90
2023-03-04T07:17:07.384Z,1.00
2023-03-04T07:19:38.394Z,1.00
2023-03-04T07:22:09.445Z,1.10
2023-03-04T07:24:40.345Z,1.30
2023-03-04T07:27:11.293Z,1.30
2023-03-04T07:29:42.178Z,1.20
2023-03-04T07:32:13.358Z,1.10
2023-03-04T07:34:44.370Z,1.30
2023-03-04T07:37:15.348Z,1.30
2023-03-04T07:39:46.355Z,1.30
2023-03-04T07:42:17.361Z,1.30
2023-03-04T07:44:48.311Z,1.30
2023-03-04T07:47:19.722Z,1.40
2023-03-04T07:49:50.591Z,1.30
2023-03-04T07:52:21.588Z,1.30
2023-03-04T07:54:52.513Z,1.50
2023-03-04T07:57:23.498Z,1.50
2023-03-04T07:59:54.429Z,1.50
2023-03-04T08:02:25.410Z,1.50
2023-03-04T08:04:56.331Z,1.40
2023-03-04T08:07:27.409Z,1.50
2023-03-04T08:09:58.368Z,1.60
2023-03-04T08:12:30.397Z,1.80
2023-03-04T08:15:01.347Z,2.00
2023-03-04T08:17:32.854Z,2.10
2023-03-04T08:20:10.371Z,1.90
2023-03-04T08:22:41.335Z,1.80
2023-03-04T08:25:12.200Z,1.90
2023-03-04T08:27:43.231Z,1.80
2023-03-04T08:30:14.318Z,1.90
2023-03-04T08:32:45.396Z,1.90
2023-03-04T08:35:17.479Z,2.00
2023-03-04T08:37:48.766Z,2.20
2023-03-04T08:40:20.391Z,2.30
2023-03-04T08:42:51.277Z,2.30
2023-03-04T08:45:22.212Z,2.30
2023-03-04T08:47:53.088Z,2.30
2023-03-04T08:50:24.070Z,2.10
2023-03-04T08:52:54.984Z,2.00
2023-03-04T08:55:25.878Z,2.00
2023-03-04T08:57:56.825Z,2.30
2023-03-04T09:00:27.752Z,2.30
2023-03-04T09:02:58.786Z,2.10
2023-03-04T09:05:30.826Z,2.20
2023-03-04T09:08:02.145Z,2.20
2023-03-04T09:10:33.397Z,2.30
2023-03-04T09:13:06.357Z,2.30
2023-03-04T09:15:39.297Z,2.30
2023-03-04T09:18:10.605Z,2.30
2023-03-04T09:20:41.722Z,2.40
2023-03-04T09:23:13.561Z,2.60
2023-03-04T09:25:46.513Z,2.80
2023-03-04T09:28:18.984Z,2.70
2023-03-04T09:30:49.898Z,2.70
2023-03-04T09:33:20.818Z,2.60
2023-03-04T09:35:51.718Z,2.70
2023-03-04T09:38:24.883Z,2.70
2023-03-04T09:41:05.648Z,2.80
2023-03-04T09:43:39.706Z,2.80
2023-03-04T09:46:34.976Z,2.90
2023-03-04T09:49:07.544Z,2.80
2023-03-04T09:51:51.465Z,2.70
2023-03-04T09:54:47.332Z,2.90
2023-03-04T09:57:53.599Z,3.00
2023-03-04T10:00:31.378Z,3.00
2023-03-04T10:03:21.825Z,3.10
2023-03-04T10:06:06.931Z,3.30
2023-03-04T10:09:00.266Z,3.40
2023-03-04T10:11:49.091Z,3.30
2023-03-04T10:14:23.077Z,3.30
2023-03-04T10:17:17.607Z,5.20
2023-03-04T10:20:09.934Z,5.20
2023-03-04T10:22:56.926Z,4.50
2023-03-04T10:25:31.883Z,4.20
2023-03-04T10:28:12.662Z,4.10
2023-03-04T10:31:19.672Z,4.10
2023-03-04T10:33:50.710Z,3.90
2023-03-04T10:36:37.988Z,3.80
2023-03-04T10:39:19.530Z,3.70
2023-03-04T10:42:03.658Z,3.70
2023-03-04T10:44:38.110Z,3.80
2023-03-04T10:47:14.219Z,4.00
2023-03-04T10:49:57.895Z,3.90
2023-03-04T10:52:41.726Z,3.90
2023-03-04T10:55:20.315Z,3.90
2023-03-04T10:58:18.249Z,3.80
2023-03-04T11:01:06.971Z,3.70
2023-03-04T11:03:38.629Z,3.90
2023-03-04T11:06:23.118Z,4.00
2023-03-04T11:08:59.676Z,3.90
2023-03-04T11:11:44.489Z,3.90
2023-03-04T11:14:30.416Z,3.80
2023-03-04T11:17:17.671Z,3.90
2023-03-04T11:20:17.446Z,4.00
2023-03-04T11:22:48.675Z,3.90
2023-03-04T11:25:44.962Z,3.90
2023-03-04T11:28:27.759Z,4.00
2023-03-04T11:31:04.342Z,4.00
2023-03-04T11:33:54.026Z,4.00
2023-03-04T11:36:57.301Z,4.00
2023-03-04T11:40:08.951Z,4.20
2023-03-04T11:42:56.108Z,4.30
2023-03-04T11:45:38.942Z,4.20
2023-03-04T11:49:04.448Z,4.10
2023-03-04T11:51:45.065Z,4.20
2023-03-04T11:54:45.418Z,4.10
2023-03-04T11:57:55.319Z,3.80
2023-03-04T12:00:45.767Z,3.90
2023-03-04T12:04:12.196Z,3.90
2023-03-04T12:07:26.334Z,3.90
2023-03-04T12:10:28.580Z,4.10
2023-03-04T12:13:35.526Z,4.00
2023-03-04T12:16:34.443Z,4.00
2023-03-04T12:19:35.030Z,4.00
2023-03-04T12:22:27.656Z,3.80
2023-03-04T12:25:18.107Z,3.90
2023-03-04T12:28:01.989Z,4.00
2023-03-04T12:31:20.085Z,4.00
2023-03-04T12:34:30.297Z,3.90
2023-03-04T12:37:23.508Z,4.00
2023-03-04T12:40:20.580Z,4.00
2023-03-04T12:43:17.048Z,3.90
2023-03-04T12:46:30.520Z,4.00
2023-03-04T12:49:52.023Z,4.00
2023-03-04T12:52:57.532Z,4.10
2023-03-04T12:55:40.255Z,4.00
2023-03-04T12:58:20.546Z,3.80
2023-03-04T13:00:57.817Z,4.00
2023-03-04T13:03:31.376Z,3.90
2023-03-04T13:06:36.155Z,3.80
2023-03-04T13:09:48.306Z,3.90
2023-03-04T13:12:23.798Z,3.90
2023-03-04T13:15:09.919Z,4.00
2023-03-04T13:18:02.346Z,3.90
2023-03-04T13:20:41.338Z,4.10
2023-03-04T13:23:15.244Z,3.90
2023-03-04T13:25:55.390Z,3.90
2023-03-04T13:28:30.467Z,3.80
2023-03-04T13:31:10.223Z,3.70
2023-03-04T13:33:50.275Z,3.70
2023-03-04T13:36:54.965Z,3.70
2023-03-04T13:39:28.734Z,3.70
2023-03-04T13:42:00.248Z,3.80
2023-03-04T13:44:46.365Z,3.90
2023-03-04T13:47:27.614Z,3.90
2023-03-04T13:50:30.071Z,3.80
2023-03-04T13:53:23.783Z,3.80
2023-03-04T13:56:25.413Z,3.60
2023-03-04T13:59:08.524Z,3.70
2023-03-04T14:02:15.892Z,3.70
2023-03-04T14:04:58.764Z,3.80
2023-03-04T14:07:39.462Z,3.80
2023-03-04T14:10:13.195Z,3.80
2023-03-04T14:12:50.482Z,3.90
2023-03-04T14:15:28.935Z,3.90
2023-03-04T14:18:02.541Z,4.00
2023-03-04T14:20:44.948Z,3.80
2023-03-04T14:23:33.174Z,3.90
2023-03-04T14:26:14.636Z,3.90
2023-03-04T14:28:51.652Z,3.90
2023-03-04T14:31:27.754Z,3.90
2023-03-04T14:34:02.112Z,4.00
2023-03-04T14:36:35.464Z,3.90
2023-03-04T14:39:07.414Z,4.00
2023-03-04T14:41:43.315Z,4.10
2023-03-04T14:44:38.154Z,4.10
2023-03-04T14:47:33.336Z,4.10
2023-03-04T14:50:14.949Z,4.20
2023-03-04T14:52:48.777Z,4.10
2023-03-04T14:55:26.632Z,4.20
2023-03-04T14:58:22.453Z,4.20
2023-03-04T15:01:08.263Z,4.10
2023-03-04T15:03:43.697Z,4.10
2023-03-04T15:06:23.420Z,4.10
2023-03-04T15:08:59.845Z,3.90
2023-03-04T15:11:52.313Z,3.80
2023-03-04T15:14:51.999Z,3.80
2023-03-04T15:17:28.999Z,3.80
2023-03-04T15:20:25.256Z,3.90
2023-03-04T15:23:01.043Z,4.00
2023-03-04T15:25:32.038Z,4.00
2023-03-04T15:28:04.368Z,4.00
2023-03-04T15:30:35.479Z,3.90
2023-03-04T15:33:10.869Z,3.90
2023-03-04T15:35:51.522Z,3.90
2023-03-04T15:38:23.555Z,3.90
2023-03-04T15:40:55.353Z,3.90
2023-03-04T15:43:26.865Z,3.90
2023-03-04T15:45:57.772Z,4.00
2023-03-04T15:48:29.183Z,3.90
2023-03-04T15:51:02.047Z,3.90
2023-03-04T15:53:39.654Z,3.90
2023-03-04T15:56:24.981Z,3.90
2023-03-04T15:59:12.896Z,3.90
2023-03-04T16:01:44.862Z,3.90
2023-03-04T16:04:17.172Z,3.90
2023-03-04T16:06:50.217Z,4.00
2023-03-04T16:09:22.919Z,4.00
2023-03-04T16:11:56.474Z,4.00
2023-03-04T16:14:27.388Z,4.00
2023-03-04T16:16:58.318Z,4.00
2023-03-04T16:19:29.181Z,4.00
2023-03-04T16:22:00.160Z,4.00
2023-03-04T16:24:34.488Z,3.90
2023-03-04T16:27:11.302Z,4.00
2023-03-04T16:29:42.289Z,4.00
2023-03-04T16:32:13.192Z,4.10
2023-03-04T16:34:44.080Z,4.10
2023-03-04T16:37:20.684Z,4.10
2023-03-04T16:39:53.135Z,4.10
2023-03-04T16:42:25.366Z,4.10
2023-03-04T16:44:56.780Z,4.30
2023-03-04T16:47:28.055Z,4.30
2023-03-04T16:49:59.241Z,4.20
2023-03-04T16:52:32.966Z,4.20
2023-03-04T16:55:04.267Z,4.20
2023-03-04T16:57:35.154Z,4.30
2023-03-04T17:00:08.223Z,4.20
2023-03-04T17:02:39.481Z,4.00
2023-03-04T17:05:19.633Z,4.00
2023-03-04T17:07:50.518Z,3.90
2023-03-04T17:10:23.684Z,4.00
2023-03-04T17:12:54.858Z,4.10
2023-03-04T17:15:25.809Z,4.10
2023-03-04T17:17:56.710Z,4.10
2023-03-04T17:20:28.089Z,4.20
2023-03-04T17:22:58.963Z,4.20
2023-03-04T17:25:29.906Z,4.30
2023-03-04T17:28:00.805Z,4.30
2023-03-04T17:30:31.979Z,4.30
2023-03-04T17:33:02.889Z,4.20
2023-03-04T17:35:33.824Z,4.10
2023-03-04T17:38:04.737Z,4.30
2023-03-04T17:40:36.010Z,4.40
2023-03-04T17:43:11.549Z,4.40
2023-03-04T17:45:43.783Z,4.40
2023-03-04T17:48:17.758Z,4.30
2023-03-04T17:50:53.501Z,4.20
2023-03-04T17:53:24.839Z,4.30
2023-03-04T17:56:02.409Z,4.20
2023-03-04T17:58:36.012Z,4.30
2023-03-04T18:01:17.754Z,4.30
2023-03-04T18:03:50.177Z,4.30
2023-03-04T18:06:22.865Z,4.30
2023-03-04T18:08:54.293Z,4.40
2023-03-04T18:11:27.408Z,4.40
2023-03-04T18:13:58.331Z,4.50
2023-03-04T18:16:29.894Z,4.50
2023-03-04T18:19:02.276Z,4.90
2023-03-04T18:21:33.405Z,5.90
2023-03-04T18:24:05.111Z,6.20
2023-03-04T18:26:36.279Z,6.10
2023-03-04T18:29:07.278Z,5.80
2023-03-04T18:31:38.373Z,5.50
2023-03-04T18:34:11.251Z,5.30
2023-03-04T18:36:42.235Z,5.10
2023-03-04T18:39:13.221Z,5.00
2023-03-04T18:41:44.442Z,4.90
2023-03-04T18:44:15.390Z,4.90
2023-03-04T18:46:50.975Z,4.80
2023-03-04T18:49:22.866Z,4.80
2023-03-04T18:51:53.971Z,4.70
2023-03-04T18:54:28.102Z,4.70
2023-03-04T18:57:17.829Z,4.70
2023-03-04T19:00:03.973Z,4.80
2023-03-04T19:03:02.081Z,4.80
2023-03-04T19:05:40.527Z,4.80
2023-03-04T19:08:21.744Z,4.80
2023-03-04T19:10:53.529Z,4.70
2023-03-04T19:13:33.596Z,4.70
2023-03-04T19:16:49.833Z,4.50
2023-03-04T19:19:20.875Z,4.60
2023-03-04T19:21:51.845Z,4.60
2023-03-04T19:24:22.734Z,4.50
2023-03-04T19:26:53.859Z,4.50
2023-03-04T19:29:24.944Z,4.60
2023-03-04T19:31:55.889Z,4.60
2023-03-04T19:34:30.146Z,4.70
2023-03-04T19:37:01.061Z,4.80
2023-03-04T19:39:32.131Z,4.80
2023-03-04T19:42:06.424Z,4.80
2023-03-04T19:44:37.810Z,4.70
2023-03-04T19:47:08.738Z,4.70
2023-03-04T19:49:39.609Z,4.70
2023-03-04T19:52:10.559Z,4.60
2023-03-04T19:54:43.613Z,4.60
2023-03-04T19:57:14.507Z,4.60
2023-03-04T19:59:45.497Z,4.70
2023-03-04T20:02:18.887Z,4.70
2023-03-04T20:04:50.026Z,4.70
2023-03-04T20:07:21.033Z,4.70
2023-03-04T20:09:53.427Z,4.70
2023-03-04T20:12:24.807Z,4.70
2023-03-04T20:14:55.728Z,4.70
2023-03-04T20:17:26.696Z,4.80
2023-03-04T20:20:00.675Z,4.70
2023-03-04T20:22:31.893Z,4.60
2023-03-04T20:25:03.246Z,4.60
2023-03-04T20:27:34.432Z,4.60
2023-03-04T20:30:05.969Z,4.70
2023-03-04T20:32:36.912Z,4.70
2023-03-04T20:35:13.973Z,4.70
2023-03-04T20:37:49.284Z,4.70
2023-03-04T20:40:20.361Z,4.70
2023-03-04T20:42:51.331Z,4.70
2023-03-04T20:45:22.245Z,4.70
2023-03-04T20:47:53.763Z,4.60
2023-03-04T20:50:26.012Z,4.70
2023-03-04T20:52:56.931Z,4.70
2023-03-04T20:55:28.317Z,4.70
2023-03-04T20:57:59.512Z,4.70
2023-03-04T21:00:30.877Z,4.60
2023-03-04T21:03:01.838Z,4.40
2023-03-04T21:05:32.940Z,4.50
2023-03-04T21:08:03.960Z,4.40
2023-03-04T21:10:38.979Z,4.30
2023-03-04T21:13:13.379Z,4.30
2023-03-04T21:15:48.206Z,4.40
2023-03-04T21:18:19.568Z,4.40
2023-03-04T21:20:51.995Z,4.40
2023-03-04T21:23:23.006Z,4.40
2023-03-04T21:25:53.922Z,4.40
2023-03-04T21:28:25.227Z,4.40
2023-03-04T21:30:57.051Z,4.40
2023-03-04T21:33:34.584Z,4.50
2023-03-04T21:36:05.957Z,4.50
2023-03-04T21:38:38.611Z,4.60
2023-03-04T21:41:20.385Z,4.50
2023-03-04T21:43:52.202Z,4.50
2023-03-04T21:46:23.422Z,4.70
2023-03-04T21:48:54.413Z,4.70
2023-03-04T21:51:25.344Z,4.60
2023-03-04T21:53:56.277Z,4.50
2023-03-04T21:56:27.316Z,4.60
2023-03-04T21:59:02.985Z,4.60
2023-03-04T22:01:35.302Z,4.70
2023-03-04T22:04:06.732Z,4.60
2023-03-04T22:06:39.363Z,4.60
2023-03-04T22:09:12.870Z,4.60
2023-03-04T22:11:43.941Z,4.60
2023-03-04T22:14:14.986Z,4.60
2023-03-04T22:16:54.368Z,4.60
2023-03-04T22:19:30.574Z,4.60
2023-03-04T22:22:01.541Z,4.60
2023-03-04T22:24:32.505Z,4.50
2023-03-04T22:27:03.661Z,4.50
2023-03-04T22:29:34.615Z,4.60
2023-03-04T22:32:05.936Z,4.70
2023-03-04T22:34:36.891Z,4.70
2023-03-04T22:37:07.817Z,4.80
2023-03-04T22:39:38.708Z,4.80
2023-03-04T22:42:11.536Z,4.80
2023-03-04T22:44:42.443Z,4.90
2023-03-04T22:47:13.446Z,4.80
2023-03-04T22:49:44.893Z,4.70
2023-03-04T22:52:15.928Z,4.60
2023-03-04T22:54:46.834Z,4.60
2023-03-04T22:57:18.064Z,4.60
2023-03-04T22:59:49.098Z,4.60
2023-03-04T23:02:20.051Z,4.60
2023-03-04T23:04:51.024Z,4.60
2023-03-04T23:07:21.926Z,4.60
2023-03-04T23:09:52.782Z,4.60
2023-03-04T23:12:23.823Z,4.60
2023-03-04T23:14:54.836Z,4.60
2023-03-04T23:17:26.073Z,4.60
2023-03-04T23:19:56.947Z,4.60
2023-03-04T23:22:28.033Z,4.60
2023-03-04T23:24:59.004Z,4.60
2023-03-04T23:27:30.030Z,4.50
2023-03-04T23:30:00.962Z,4.50
2023-03-04T23:32:32.033Z,4.50
2023-03-04T23:35:03.359Z,4.50
2023-03-04T23:37:34.326Z,4.50
2023-03-04T23:40:05.982Z,4.60
2023-03-04T23:42:39.337Z,4.60
2023-03-04T23:45:10.777Z,4.50
2023-03-04T23:47:41.626Z,4.60
2023-03-04T23:50:15.990Z,4.60
2023-03-04T23:52:46.989Z,4.60
2023-03-04T23:55:19.939Z,4.60
2023-03-04T23:57:50.834Z,4.50
